Time;durP1;ratioP1;P1;durP2;ratioP2;P2;SDS_P1;SDS_P2;PMS_P1;PMS_P2;Temp;Humidity;BMP_temperature;BMP_pressure;BME280_temperature;BME280_humidity;BME280_pressure;Samples;Min_cycle;Max_cycle;Signal;HPM_P1;HPM_P2
2022/09/11 03:33:20;;;;;;;2.03;1.50;;;14.30;99.90;;;;;;4997234;28;20462;-94
2022/09/11 03:38:36;;;;;;;2.20;1.77;;;14.30;99.90;;;;;;5117230;23;20562;-94
2022/09/11 03:41:04;;;;;;;2.80;1.70;;;14.30;99.90;;;;;;4999003;28;20436;-94
2022/09/11 03:43:32;;;;;;;1.87;1.70;;;14.30;99.90;;;;;;4998802;28;20515;-96
2022/09/11 03:46:01;;;;;;;1.90;1.67;;;14.30;99.90;;;;;;4999620;28;20440;-95
2022/09/11 03:48:34;;;;;;;1.77;1.57;;;14.30;99.90;;;;;;4999106;28;20478;-94
2022/09/11 03:51:04;;;;;;;2.10;1.60;;;14.30;99.90;;;;;;4998999;28;20468;-94
2022/09/11 03:53:40;;;;;;;1.83;1.73;;;14.30;99.90;;;;;;4999230;28;20439;-96
2022/09/11 03:56:07;;;;;;;2.30;2.10;;;14.30;99.90;;;;;;4999204;28;20440;-96
2022/09/11 03:58:35;;;;;;;1.90;1.70;;;14.30;99.90;;;;;;4999022;28;20464;-95
2022/09/11 04:01:02;;;;;;;2.00;1.80;;;14.30;99.90;;;;;;4999085;28;20480;-94
2022/09/11 04:03:30;;;;;;;2.83;2.07;;;14.20;99.90;;;;;;4998950;28;20459;-95
2022/09/11 04:06:04;;;;;;;1.90;1.80;;;14.20;99.90;;;;;;4999180;28;20447;-94
2022/09/11 04:08:32;;;;;;;1.70;1.60;;;14.20;99.90;;;;;;4997594;28;20476;-94
2022/09/11 04:11:13;;;;;;;2.33;2.03;;;14.20;99.90;;;;;;4999102;28;20467;-94
2022/09/11 04:13:42;;;;;;;2.13;1.93;;;14.30;99.90;;;;;;4998192;28;20522;-96
2022/09/11 04:26:55;;;;;;;3.53;2.30;;;14.30;99.90;;;;;;5098515;23;20483;-93
2022/09/11 04:29:23;;;;;;;1.90;1.80;;;14.30;99.90;;;;;;4979153;28;20496;-95
2022/09/11 04:34:44;;;;;;;2.30;2.03;;;14.40;99.90;;;;;;4981773;28;20452;-93
2022/09/11 04:37:15;;;;;;;2.40;2.20;;;14.40;99.90;;;;;;4983179;28;20439;-93
2022/09/11 04:39:44;;;;;;;1.83;1.73;;;14.40;99.90;;;;;;5303028;23;21697;-93
2022/09/11 04:42:18;;;;;;;2.33;2.07;;;14.40;99.90;;;;;;5002328;28;20439;-94
2022/09/11 04:44:49;;;;;;;3.90;2.87;;;14.40;99.90;;;;;;5001972;28;20463;-94
2022/09/11 04:47:28;;;;;;;2.10;1.90;;;14.40;99.90;;;;;;5058421;23;20496;-95
2022/09/11 04:49:56;;;;;;;4.37;2.10;;;14.40;99.90;;;;;;5001977;28;20485;-95
2022/09/11 04:52:32;;;;;;;2.43;2.23;;;14.40;99.90;;;;;;5002159;28;20440;-94
2022/09/11 04:55:06;;;;;;;3.13;2.40;;;14.40;99.90;;;;;;5002000;28;20443;-96
2022/09/11 04:57:37;;;;;;;4.70;3.73;;;14.40;99.90;;;;;;5002136;28;20471;-95
2022/09/11 05:00:11;;;;;;;2.20;2.00;;;14.40;99.90;;;;;;5001926;28;20535;-94
2022/09/11 05:02:40;;;;;;;2.50;2.30;;;14.40;99.90;;;;;;5002014;28;20450;-96
2022/09/11 05:05:11;;;;;;;2.50;2.30;;;14.50;99.90;;;;;;5002096;28;20463;-94
2022/09/11 05:07:44;;;;;;;1.90;1.77;;;14.50;99.90;;;;;;5002155;28;20507;-94
2022/09/11 05:10:15;;;;;;;3.30;2.30;;;14.50;99.90;;;;;;5074527;23;20748;-93
2022/09/11 05:40:43;;;;;;;3.20;2.67;;;14.60;99.90;;;;;;673009;23;22129;-95
2022/09/11 05:43:09;;;;;;;2.80;2.60;;;14.70;99.90;;;;;;4970805;28;20475;-93
2022/09/11 05:45:36;;;;;;;3.00;2.73;;;14.60;99.90;;;;;;4968788;28;20459;-93
2022/09/11 05:48:03;;;;;;;3.03;2.77;;;14.70;99.90;;;;;;4966523;28;20453;-93
2022/09/11 05:50:32;;;;;;;2.80;2.60;;;14.70;99.90;;;;;;4963974;28;20484;-92
2022/09/11 05:52:58;;;;;;;3.37;3.07;;;14.70;99.90;;;;;;4965009;28;20471;-93
2022/09/11 05:55:25;;;;;;;2.80;2.60;;;14.80;99.90;;;;;;4971381;28;20516;-92
2022/09/11 05:57:57;;;;;;;3.60;3.10;;;14.80;99.90;;;;;;4974498;28;20471;-93
2022/09/11 06:00:24;;;;;;;3.07;2.73;;;14.90;99.90;;;;;;4974977;28;20519;-92
2022/09/11 06:22:51;;;;;;;3.40;3.10;;;14.90;99.90;;;;;;5165763;27;20520;-93
2022/09/11 06:25:19;;;;;;;2.93;2.70;;;15.00;99.90;;;;;;5163346;27;20455;-92
2022/09/11 06:28:21;;;;;;;3.93;3.23;;;15.00;99.90;;;;;;5164756;27;20467;-93
2022/09/11 06:33:40;;;;;;;3.50;3.20;;;15.00;99.90;;;;;;5152853;28;20428;-92
2022/09/11 06:36:18;;;;;;;2.97;2.77;;;15.10;99.90;;;;;;5156008;28;20437;-93
2022/09/11 06:56:01;;;;;;;4.10;3.50;;;15.20;99.90;;;;;;5254691;22;20511;-95
2022/09/11 06:58:29;;;;;;;3.60;3.30;;;15.30;99.90;;;;;;5072609;28;20468;-95
2022/09/11 07:01:05;;;;;;;3.10;2.80;;;15.30;99.90;;;;;;5135514;22;20505;-95
2022/09/11 07:03:33;;;;;;;3.67;3.37;;;15.30;99.90;;;;;;5096261;28;20450;-96
2022/09/11 07:06:02;;;;;;;3.90;3.60;;;15.30;99.90;;;;;;5096396;28;20454;-96
2022/09/11 07:08:29;;;;;;;3.57;3.27;;;15.40;99.90;;;;;;5096010;28;20462;-94
2022/09/11 07:11:05;;;;;;;3.40;3.10;;;15.50;99.90;;;;;;5096101;28;20451;-95
2022/09/11 07:13:33;;;;;;;4.53;3.57;;;15.50;99.90;;;;;;5096002;28;20440;-95
2022/09/11 07:19:17;;;;;;;3.73;3.43;;;15.50;99.90;;;;;;5091763;28;20479;-92
2022/09/11 07:22:13;;;;;;;4.23;3.80;;;15.60;99.90;;;;;;5094069;28;20491;-93
2022/09/11 07:24:46;;;;;;;4.43;3.60;;;15.60;99.90;;;;;;5094253;28;20447;-94
2022/09/11 07:27:15;;;;;;;3.80;3.50;;;15.60;99.90;;;;;;5092054;28;20531;-96
2022/09/11 07:40:07;;;;;;;5.30;4.80;;;15.60;99.90;;;;;;4419482;26;20479;-94
2022/09/11 07:42:35;;;;;;;3.90;3.23;;;15.60;99.90;;;;;;5096843;28;20462;-93
2022/09/11 07:45:02;;;;;;;3.33;3.03;;;15.60;99.90;;;;;;5097729;28;20439;-95
2022/09/11 07:47:29;;;;;;;3.73;3.43;;;15.70;99.90;;;;;;5099202;28;20449;-94
2022/09/11 07:49:56;;;;;;;5.03;3.40;;;15.80;99.90;;;;;;5096180;28;20462;-94
2022/09/11 07:52:23;;;;;;;3.47;3.17;;;15.80;99.90;;;;;;5098141;28;20446;-94
2022/09/11 07:54:51;;;;;;;3.90;3.60;;;15.90;99.90;;;;;;5099724;28;20515;-94
2022/09/11 07:57:18;;;;;;;3.43;3.13;;;15.90;99.90;;;;;;5099911;28;20510;-94
2022/09/11 08:15:20;;;;;;;4.37;3.70;;;16.30;99.90;;;;;;4254219;26;20457;-94
2022/09/11 08:17:47;;;;;;;3.60;3.30;;;16.30;99.90;;;;;;5059448;28;20441;-94
2022/09/11 08:20:14;;;;;;;3.80;3.50;;;16.30;99.90;;;;;;5105174;22;20596;-95
2022/09/11 08:22:42;;;;;;;5.73;4.50;;;16.40;99.90;;;;;;5058678;28;20476;-94
2022/09/11 08:25:09;;;;;;;4.30;3.90;;;16.40;99.90;;;;;;5056382;28;20544;-95
2022/09/11 08:27:40;;;;;;;4.30;3.90;;;16.40;99.90;;;;;;5050256;28;20453;-93
2022/09/11 08:30:09;;;;;;;4.40;4.00;;;16.40;99.90;;;;;;5161947;22;20712;-94
2022/09/11 08:32:40;;;;;;;6.07;4.60;;;16.40;99.90;;;;;;5058251;28;20443;-95
2022/09/11 08:35:10;;;;;;;4.83;4.20;;;16.30;99.90;;;;;;5056465;28;20465;-94
2022/09/11 08:45:28;;;;;;;5.00;4.50;;;16.40;99.90;;;;;;3183922;26;20505;-95
2022/09/11 08:47:59;;;;;;;4.33;3.93;;;16.60;99.90;;;;;;5042788;28;20462;-95
2022/09/11 08:53:24;;;;;;;6.20;4.63;;;17.00;99.90;;;;;;5036356;28;20453;-94
2022/09/11 08:56:06;;;;;;;4.10;3.80;;;17.20;99.90;;;;;;5037668;28;20446;-94
2022/09/11 08:58:41;;;;;;;3.90;3.60;;;17.40;99.90;;;;;;5056070;23;20585;-68
2022/09/11 09:01:20;;;;;;;8.30;5.20;;;17.60;99.90;;;;;;5050071;28;20582;-67
2022/09/11 09:04:03;;;;;;;4.23;3.83;;;17.80;99.90;;;;;;5038980;28;20512;-67
2022/09/11 09:06:54;;;;;;;7.33;4.10;;;18.00;99.90;;;;;;5030057;28;20911;-67
2022/09/11 09:09:32;;;;;;;4.63;3.77;;;18.30;99.90;;;;;;5040474;28;20970;-67
2022/09/11 09:12:07;;;;;;;4.53;3.90;;;18.60;99.90;;;;;;5049734;28;20462;-68
2022/09/11 09:14:57;;;;;;;4.33;3.93;;;18.70;99.90;;;;;;5050064;28;20546;-67
2022/09/11 09:17:30;;;;;;;3.80;3.50;;;18.60;99.90;;;;;;5050413;28;20495;-68
2022/09/11 09:20:01;;;;;;;3.80;3.47;;;18.70;99.90;;;;;;5049604;28;20522;-67
2022/09/11 09:22:38;;;;;;;3.73;3.43;;;18.70;99.90;;;;;;5049258;28;20483;-67
2022/09/11 09:25:10;;;;;;;3.70;3.40;;;19.00;99.90;;;;;;5015835;28;20468;-67
2022/09/11 09:27:42;;;;;;;4.97;4.27;;;19.20;99.90;;;;;;5009339;28;20881;-67
2022/09/11 09:30:15;;;;;;;4.40;4.00;;;19.20;99.90;;;;;;5010040;28;20462;-67
2022/09/11 09:32:47;;;;;;;3.40;3.10;;;19.10;99.90;;;;;;5009620;28;20478;-67
2022/09/11 09:35:18;;;;;;;3.47;3.17;;;18.90;99.90;;;;;;5020444;28;20465;-67
2022/09/11 09:37:45;;;;;;;3.73;3.17;;;18.80;99.90;;;;;;5029249;28;20472;-67
2022/09/11 09:40:16;;;;;;;3.53;3.20;;;18.80;99.90;;;;;;5029481;28;20465;-67
2022/09/11 09:43:09;;;;;;;3.80;3.50;;;18.90;99.90;;;;;;5029111;28;20536;-67
2022/09/11 09:45:42;;;;;;;3.53;3.23;;;19.10;99.90;;;;;;5028750;28;20474;-67
2022/09/11 09:48:10;;;;;;;4.90;3.70;;;19.40;99.90;;;;;;5028630;28;20504;-67
2022/09/11 09:50:42;;;;;;;3.77;3.43;;;19.80;99.90;;;;;;5029014;28;20516;-67
2022/09/11 09:53:16;;;;;;;4.03;3.63;;;19.90;99.90;;;;;;5027892;28;20521;-68
2022/09/11 09:55:46;;;;;;;4.30;3.90;;;19.80;99.90;;;;;;5013235;28;20461;-67
2022/09/11 09:58:13;;;;;;;3.60;3.30;;;19.50;99.90;;;;;;5010886;28;20488;-67
2022/09/11 10:00:40;;;;;;;3.80;3.40;;;19.20;99.90;;;;;;5027651;28;20474;-67
2022/09/11 10:03:21;;;;;;;3.10;2.87;;;19.10;99.90;;;;;;5028644;28;20484;-68
2022/09/11 10:05:52;;;;;;;3.50;3.20;;;19.00;99.90;;;;;;5026039;28;20460;-67
2022/09/11 10:08:26;;;;;;;4.00;3.53;;;18.90;99.90;;;;;;5008750;28;20462;-67
2022/09/11 10:10:56;;;;;;;4.20;3.90;;;18.90;99.90;;;;;;5012293;28;20556;-68
2022/09/11 10:13:27;;;;;;;4.17;3.77;;;19.00;99.90;;;;;;5028307;28;20576;-68
2022/09/11 10:15:55;;;;;;;3.87;3.57;;;19.00;99.90;;;;;;5028236;28;20465;-68
2022/09/11 10:18:24;;;;;;;4.33;3.93;;;19.00;99.90;;;;;;5027050;28;20879;-67
2022/09/11 10:20:53;;;;;;;4.43;4.03;;;19.00;99.90;;;;;;5028503;28;20461;-67
2022/09/11 10:23:24;;;;;;;3.93;3.63;;;19.00;99.90;;;;;;5027883;28;20580;-67
2022/09/11 10:25:52;;;;;;;5.83;4.03;;;18.90;99.90;;;;;;5027718;28;20468;-67
2022/09/11 10:28:29;;;;;;;4.53;4.17;;;18.80;99.90;;;;;;5028587;28;20467;-67
2022/09/11 10:30:59;;;;;;;4.60;4.20;;;18.70;99.90;;;;;;5028263;28;20471;-67
2022/09/11 10:33:29;;;;;;;5.83;4.30;;;18.60;99.90;;;;;;5028032;28;20485;-67
2022/09/11 10:35:59;;;;;;;4.53;4.03;;;18.50;99.90;;;;;;5028391;28;20483;-67
2022/09/11 10:38:31;;;;;;;4.70;4.20;;;18.50;99.90;;;;;;5027197;28;20469;-68
2022/09/11 10:41:08;;;;;;;4.23;3.83;;;18.50;99.90;;;;;;5028956;28;20832;-68
2022/09/11 10:43:41;;;;;;;4.87;4.30;;;18.60;99.90;;;;;;5028503;28;20476;-67
2022/09/11 10:46:24;;;;;;;4.60;4.20;;;18.70;99.90;;;;;;5028768;28;20465;-68
2022/09/11 10:48:55;;;;;;;4.63;4.23;;;18.90;99.90;;;;;;5028310;28;20883;-68
2022/09/11 10:51:25;;;;;;;5.10;4.60;;;19.30;99.90;;;;;;5028659;28;20468;-67
2022/09/11 10:54:06;;;;;;;4.77;4.30;;;19.60;99.90;;;;;;5028291;28;20493;-68
2022/09/11 10:56:38;;;;;;;4.33;3.93;;;19.90;99.90;;;;;;5029008;28;20473;-68
2022/09/11 10:59:11;;;;;;;5.83;4.33;;;20.30;99.90;;;;;;5030853;28;20482;-68
2022/09/11 11:01:38;;;;;;;4.17;3.73;;;20.60;99.90;;;;;;5047099;28;20486;-67
2022/09/11 11:04:05;;;;;;;4.10;3.70;;;21.00;99.90;;;;;;5047597;28;20488;-67
2022/09/11 11:06:49;;;;;;;4.40;3.87;;;21.40;99.90;;;;;;5048305;28;20471;-67
2022/09/11 11:09:35;;;;;;;4.13;3.80;;;21.70;99.90;;;;;;5052517;28;20462;-68
2022/09/11 11:12:40;;;;;;;4.97;4.40;;;21.90;99.90;;;;;;5051257;28;20459;-68
2022/09/11 11:15:26;;;;;;;4.50;4.10;;;21.70;99.90;;;;;;5047487;28;20478;-69
2022/09/11 11:18:18;;;;;;;3.77;3.47;;;21.30;99.90;;;;;;5051378;28;20564;-68
2022/09/11 11:20:54;;;;;;;4.40;4.00;;;20.90;99.90;;;;;;5051672;28;20475;-68
2022/09/11 11:23:50;;;;;;;4.33;3.73;;;20.40;99.90;;;;;;5051897;28;20484;-67
2022/09/11 11:26:32;;;;;;;3.70;3.40;;;20.10;99.90;;;;;;5052471;28;20922;-67
2022/09/11 11:29:20;;;;;;;4.27;3.87;;;19.80;99.90;;;;;;5050975;28;20845;-67
2022/09/11 11:32:03;;;;;;;4.67;4.27;;;19.70;99.90;;;;;;5051324;28;20548;-67
2022/09/11 11:34:42;;;;;;;4.00;3.60;;;19.50;99.90;;;;;;5052562;28;20474;-67
2022/09/11 11:37:14;;;;;;;5.73;3.67;;;19.40;99.90;;;;;;5051509;28;20463;-68
2022/09/11 11:39:52;;;;;;;4.50;4.10;;;19.50;99.90;;;;;;5051143;28;20465;-67
2022/09/11 11:42:25;;;;;;;4.07;3.67;;;19.60;99.90;;;;;;5051837;28;20514;-68
2022/09/11 11:44:57;;;;;;;4.40;4.00;;;19.80;99.90;;;;;;5048271;28;20539;-67
2022/09/11 11:47:29;;;;;;;4.10;3.67;;;20.10;99.90;;;;;;5043431;28;20496;-67
2022/09/11 11:50:02;;;;;;;4.13;3.40;;;20.30;99.90;;;;;;5029433;28;20480;-68
2022/09/11 11:52:40;;;;;;;3.90;3.60;;;20.50;99.90;;;;;;5030255;28;20480;-68
2022/09/11 11:55:16;;;;;;;3.90;3.60;;;20.60;99.90;;;;;;5031335;28;20454;-68
2022/09/11 11:57:53;;;;;;;7.00;4.10;;;20.50;99.90;;;;;;5030352;28;21057;-67
2022/09/11 12:00:20;;;;;;;4.17;3.87;;;20.60;99.90;;;;;;5030546;28;20544;-67
2022/09/11 12:02:53;;;;;;;4.30;3.90;;;20.60;99.90;;;;;;5023283;28;20861;-67
2022/09/11 12:05:23;;;;;;;3.40;3.20;;;20.60;99.90;;;;;;5025046;28;20461;-66
2022/09/11 12:07:50;;;;;;;4.07;3.60;;;20.40;99.90;;;;;;5026438;28;20488;-66
2022/09/11 12:10:28;;;;;;;3.93;3.53;;;20.30;99.90;;;;;;5030216;28;20507;-69
2022/09/11 12:12:59;;;;;;;3.90;3.60;;;20.10;99.90;;;;;;5029948;28;20490;-67
2022/09/11 12:15:29;;;;;;;2.80;2.60;;;20.10;99.90;;;;;;5105650;22;20490;-67
2022/09/11 12:18:01;;;;;;;4.10;3.80;;;20.00;99.90;;;;;;5051078;28;20489;-67
2022/09/11 12:20:38;;;;;;;4.80;3.93;;;20.00;99.90;;;;;;5050458;28;20484;-67
2022/09/11 12:23:08;;;;;;;3.50;3.20;;;19.90;99.90;;;;;;5049677;28;20953;-67
2022/09/11 12:25:50;;;;;;;3.63;3.33;;;19.90;99.90;;;;;;5050258;28;20880;-67
2022/09/11 12:28:25;;;;;;;3.33;3.13;;;19.80;99.90;;;;;;5050570;28;20553;-67
2022/09/11 12:31:04;;;;;;;3.50;3.20;;;19.80;99.90;;;;;;5045000;28;20467;-67
2022/09/11 12:33:54;;;;;;;3.30;3.00;;;19.80;99.90;;;;;;5038102;28;21014;-67
2022/09/11 12:36:32;;;;;;;3.57;3.27;;;19.90;99.90;;;;;;5041167;28;20555;-68
2022/09/11 12:39:02;;;;;;;3.60;3.30;;;19.90;99.90;;;;;;5039634;28;20452;-67
2022/09/11 12:41:32;;;;;;;3.13;2.83;;;20.00;99.90;;;;;;5048782;28;20453;-68
2022/09/11 12:44:00;;;;;;;3.90;3.30;;;20.00;99.90;;;;;;5042185;28;20504;-68
2022/09/11 12:47:00;;;;;;;3.50;3.20;;;20.00;99.90;;;;;;5050493;28;20512;-68
2022/09/11 12:49:27;;;;;;;3.97;3.67;;;19.90;99.90;;;;;;5015256;28;21016;-67
2022/09/11 12:51:56;;;;;;;3.73;3.43;;;20.00;99.90;;;;;;5040708;28;20555;-68
2022/09/11 12:54:27;;;;;;;3.50;3.20;;;20.10;99.90;;;;;;5045903;28;20978;-67
2022/09/11 12:57:01;;;;;;;3.53;3.23;;;20.10;99.90;;;;;;5007067;28;20476;-67
2022/09/11 12:59:32;;;;;;;3.47;3.17;;;20.10;99.90;;;;;;5002381;28;20580;-68
2022/09/11 13:02:00;;;;;;;3.83;3.43;;;20.00;99.90;;;;;;5001448;28;20485;-68
2022/09/11 13:04:30;;;;;;;5.10;3.60;;;19.90;99.90;;;;;;5001134;28;20469;-68
2022/09/11 13:06:58;;;;;;;3.30;3.00;;;19.80;99.90;;;;;;5011460;28;20498;-68
2022/09/11 13:09:28;;;;;;;3.40;3.10;;;19.80;99.90;;;;;;5030448;28;20482;-68
2022/09/11 13:12:17;;;;;;;3.40;3.20;;;19.80;99.90;;;;;;5027470;28;20467;-68
2022/09/11 13:14:49;;;;;;;3.57;3.10;;;19.80;99.90;;;;;;4999629;28;20475;-68
2022/09/11 13:17:24;;;;;;;5.30;4.27;;;19.80;99.90;;;;;;5002666;28;20467;-68
2022/09/11 13:19:52;;;;;;;4.07;3.67;;;19.80;99.90;;;;;;4999946;28;20475;-68
2022/09/11 13:22:26;;;;;;;3.70;3.33;;;19.70;99.90;;;;;;5006050;28;20522;-67
2022/09/11 13:27:27;;;;;;;4.20;3.10;;;19.70;99.90;;;;;;5207230;22;20485;-68
2022/09/11 13:29:56;;;;;;;3.73;3.43;;;19.70;99.90;;;;;;5015788;28;20480;-68
2022/09/11 13:32:23;;;;;;;4.53;3.47;;;19.70;99.90;;;;;;5017418;28;20486;-68
2022/09/11 13:34:57;;;;;;;5.50;3.20;;;19.70;99.90;;;;;;5027918;28;20977;-68
2022/09/11 13:37:34;;;;;;;3.60;3.30;;;19.80;99.90;;;;;;5041589;28;20488;-68
2022/09/11 13:40:03;;;;;;;3.20;2.90;;;19.80;99.90;;;;;;5042225;28;20470;-68
2022/09/11 13:42:32;;;;;;;3.67;3.37;;;19.80;99.90;;;;;;5041495;28;20499;-68
2022/09/11 13:45:01;;;;;;;3.77;3.47;;;19.90;99.90;;;;;;5042829;28;20469;-69
2022/09/11 13:47:30;;;;;;;3.70;3.40;;;20.00;99.90;;;;;;5042894;28;21344;-68
2022/09/11 13:49:59;;;;;;;3.50;3.20;;;20.00;99.90;;;;;;5048705;28;20522;-68
2022/09/11 13:52:28;;;;;;;4.30;3.90;;;20.00;99.90;;;;;;5046897;28;20484;-68
2022/09/11 13:54:58;;;;;;;3.20;2.93;;;20.10;99.90;;;;;;5049000;28;20475;-67
2022/09/11 13:57:27;;;;;;;3.77;3.47;;;20.00;99.90;;;;;;5047970;28;20852;-68
2022/09/11 13:59:56;;;;;;;3.60;3.30;;;20.00;99.90;;;;;;5049364;28;20470;-68
2022/09/11 14:02:45;;;;;;;4.63;3.10;;;20.00;99.90;;;;;;5046586;28;20516;-68
2022/09/11 14:05:15;;;;;;;3.80;3.50;;;20.00;99.90;;;;;;5044679;28;20455;-68
2022/09/11 14:07:49;;;;;;;4.10;3.70;;;20.00;99.90;;;;;;5031334;28;20522;-67
2022/09/11 14:10:23;;;;;;;7.60;3.37;;;19.90;99.90;;;;;;5047658;28;20495;-68
2022/09/11 14:12:54;;;;;;;3.67;3.37;;;20.00;99.90;;;;;;5047661;28;20876;-68
2022/09/11 14:15:32;;;;;;;3.77;3.47;;;20.00;99.90;;;;;;5047774;28;20899;-68
2022/09/11 14:18:02;;;;;;;4.30;3.53;;;20.00;99.90;;;;;;5048879;28;20473;-68
2022/09/11 14:20:29;;;;;;;4.13;3.70;;;20.20;99.90;;;;;;5047558;28;20471;-68
2022/09/11 14:23:03;;;;;;;3.40;3.20;;;20.40;99.90;;;;;;5047883;28;21009;-68
2022/09/11 14:25:31;;;;;;;4.40;4.00;;;20.60;99.90;;;;;;5048598;28;20460;-68
2022/09/11 14:27:58;;;;;;;3.90;3.60;;;20.60;99.90;;;;;;5063561;28;20489;-67
2022/09/11 14:30:32;;;;;;;3.90;3.60;;;20.70;99.90;;;;;;5048072;28;20586;-68
2022/09/11 14:33:23;;;;;;;3.53;3.23;;;21.00;99.90;;;;;;5048507;28;20471;-68
2022/09/11 14:35:52;;;;;;;3.40;3.10;;;21.30;99.90;;;;;;5048940;28;20465;-68
2022/09/11 14:38:22;;;;;;;3.40;3.07;;;21.50;99.90;;;;;;5047212;28;20472;-68
2022/09/11 14:40:54;;;;;;;3.90;3.50;;;21.80;99.90;;;;;;5044063;28;20472;-68
2022/09/11 14:43:26;;;;;;;4.03;3.63;;;21.80;99.90;;;;;;5050046;28;20569;-68
2022/09/11 14:45:54;;;;;;;3.10;2.80;;;21.90;99.90;;;;;;5053157;28;20846;-68
2022/09/11 14:48:21;;;;;;;3.53;3.23;;;22.00;99.90;;;;;;5032391;28;20464;-68
2022/09/11 14:50:49;;;;;;;3.87;3.53;;;22.00;99.90;;;;;;5032953;28;20475;-68
2022/09/11 14:53:21;;;;;;;3.00;2.80;;;22.00;99.90;;;;;;5030979;28;20878;-68
2022/09/11 14:55:50;;;;;;;3.00;2.80;;;22.10;99.90;;;;;;5032322;28;20938;-68
2022/09/11 14:58:17;;;;;;;3.83;3.53;;;22.00;99.90;;;;;;5032184;28;20467;-68
2022/09/11 15:00:43;;;;;;;3.40;3.10;;;22.00;99.90;;;;;;5032395;28;20478;-68
2022/09/11 15:03:12;;;;;;;3.63;3.40;;;21.90;99.90;;;;;;5031397;28;20489;-68
2022/09/11 15:05:38;;;;;;;3.43;3.23;;;21.60;99.90;;;;;;5032274;28;20468;-68
2022/09/11 15:08:05;;;;;;;4.03;3.73;;;21.40;99.90;;;;;;5032160;28;20469;-68
2022/09/11 15:10:33;;;;;;;3.47;3.20;;;21.20;99.90;;;;;;5042680;28;20464;-68
2022/09/11 15:13:01;;;;;;;4.03;3.60;;;21.10;99.90;;;;;;5051676;28;20480;-68
2022/09/11 15:15:27;;;;;;;3.50;3.20;;;21.10;99.90;;;;;;5051664;28;21057;-68
2022/09/11 15:17:55;;;;;;;3.73;3.43;;;21.20;99.90;;;;;;5051902;28;20467;-68
2022/09/11 15:20:25;;;;;;;3.33;3.03;;;21.20;99.90;;;;;;5051814;28;20482;-67
2022/09/11 15:22:52;;;;;;;3.93;3.20;;;21.10;99.90;;;;;;5051540;28;20491;-68
2022/09/11 15:25:18;;;;;;;3.60;3.30;;;21.10;99.90;;;;;;5052102;28;20495;-68
2022/09/11 15:27:48;;;;;;;3.37;3.10;;;21.20;99.90;;;;;;5052288;28;20474;-68
2022/09/11 15:30:15;;;;;;;3.67;3.20;;;21.30;99.90;;;;;;5051920;28;20460;-68
2022/09/11 15:32:42;;;;;;;4.27;3.63;;;21.20;99.90;;;;;;5051773;28;20554;-68
2022/09/11 15:35:09;;;;;;;3.73;3.43;;;21.10;99.90;;;;;;5051626;28;20472;-68
2022/09/11 15:37:37;;;;;;;3.20;2.90;;;20.90;99.90;;;;;;5052207;28;20468;-68
2022/09/11 15:40:04;;;;;;;5.17;3.30;;;20.90;99.90;;;;;;5052428;28;20473;-68
2022/09/11 15:42:32;;;;;;;3.23;3.03;;;21.00;99.90;;;;;;5050844;28;20503;-67
2022/09/11 15:45:00;;;;;;;3.87;3.07;;;21.00;99.90;;;;;;5052145;28;20499;-68
2022/09/11 15:47:30;;;;;;;3.63;3.20;;;21.10;99.90;;;;;;5051984;28;20468;-68
2022/09/11 15:49:58;;;;;;;2.87;2.67;;;21.00;99.90;;;;;;5051860;28;20457;-68
2022/09/11 15:52:26;;;;;;;3.10;2.73;;;20.90;99.90;;;;;;5050988;28;20954;-68
2022/09/11 15:54:54;;;;;;;3.03;2.77;;;20.70;99.90;;;;;;5051932;28;20463;-67
2022/09/11 15:57:20;;;;;;;3.30;3.10;;;20.60;99.90;;;;;;5051946;28;20838;-68
2022/09/11 15:59:48;;;;;;;3.40;3.13;;;20.40;99.90;;;;;;5052062;28;20480;-68
2022/09/11 16:02:15;;;;;;;3.70;3.40;;;20.20;99.90;;;;;;5050237;28;20464;-68
2022/09/11 16:04:42;;;;;;;3.27;3.07;;;20.10;99.90;;;;;;5051271;28;20510;-68
2022/09/11 16:07:08;;;;;;;3.63;2.90;;;20.00;99.90;;;;;;5051692;28;20471;-68
2022/09/11 16:09:35;;;;;;;3.30;3.00;;;19.90;99.90;;;;;;5050960;28;20460;-68
2022/09/11 16:12:06;;;;;;;3.67;3.37;;;19.80;99.90;;;;;;5051451;28;20890;-68
2022/09/11 16:14:37;;;;;;;4.90;3.30;;;19.70;99.90;;;;;;5051514;28;20466;-69
2022/09/11 16:17:05;;;;;;;3.20;3.00;;;19.70;99.90;;;;;;5050992;28;20487;-68
2022/09/11 16:19:32;;;;;;;3.50;3.20;;;19.50;99.90;;;;;;5049429;28;20465;-68
2022/09/11 16:22:02;;;;;;;3.43;3.13;;;19.50;99.90;;;;;;5051139;28;20464;-68
2022/09/11 16:24:30;;;;;;;3.70;3.40;;;19.40;99.90;;;;;;5050817;28;20582;-68
2022/09/11 16:26:59;;;;;;;3.33;3.13;;;19.30;99.90;;;;;;5048429;28;20501;-68
2022/09/11 16:29:28;;;;;;;4.30;3.90;;;19.30;99.90;;;;;;5038885;28;20481;-68
2022/09/11 16:31:55;;;;;;;3.63;3.30;;;19.30;99.90;;;;;;5049292;28;20465;-67
2022/09/11 16:34:22;;;;;;;3.33;3.03;;;19.20;99.90;;;;;;5050542;28;20831;-68
2022/09/11 16:36:49;;;;;;;3.50;3.20;;;19.20;99.90;;;;;;5050818;28;20570;-68
2022/09/11 16:39:18;;;;;;;4.17;3.03;;;19.00;99.90;;;;;;5050543;28;20456;-68
2022/09/11 16:41:45;;;;;;;4.80;3.20;;;19.00;99.90;;;;;;5049939;28;20495;-68
2022/09/11 16:44:15;;;;;;;4.37;3.77;;;19.00;99.90;;;;;;5050477;28;20488;-67
2022/09/11 16:46:45;;;;;;;3.80;3.50;;;18.90;99.90;;;;;;5050635;28;20562;-68
2022/09/11 16:49:15;;;;;;;3.80;3.50;;;18.80;99.90;;;;;;5050495;28;20463;-68
2022/09/11 16:51:43;;;;;;;4.90;3.57;;;18.80;99.90;;;;;;5050833;28;20467;-68
2022/09/11 16:54:10;;;;;;;4.90;3.60;;;18.70;99.90;;;;;;5051048;28;21018;-67
2022/09/11 16:56:37;;;;;;;3.60;3.30;;;18.50;99.90;;;;;;5050750;28;20887;-67
2022/09/11 16:59:04;;;;;;;4.27;3.87;;;18.50;99.90;;;;;;5051072;28;20467;-67
2022/09/11 17:01:31;;;;;;;3.60;3.30;;;18.40;99.90;;;;;;5049978;28;20830;-67
2022/09/11 17:03:59;;;;;;;4.03;3.73;;;18.40;99.90;;;;;;5049720;28;20502;-67
2022/09/11 17:06:28;;;;;;;3.67;3.37;;;18.30;99.90;;;;;;5048882;28;20464;-67
2022/09/11 17:08:57;;;;;;;3.53;3.23;;;18.20;99.90;;;;;;5049864;28;21192;-67
2022/09/11 17:11:25;;;;;;;3.73;3.43;;;18.20;99.90;;;;;;5050061;28;20468;-67
2022/09/11 17:13:52;;;;;;;6.67;3.80;;;18.10;99.90;;;;;;5049483;28;20476;-67
2022/09/11 17:16:22;;;;;;;3.50;3.20;;;18.00;99.90;;;;;;5049018;28;20508;-67
2022/09/11 17:18:52;;;;;;;3.67;3.37;;;17.90;99.90;;;;;;5049853;28;20510;-67
2022/09/11 17:21:22;;;;;;;3.70;3.40;;;17.90;99.90;;;;;;5049632;28;20460;-67
2022/09/11 17:23:50;;;;;;;4.10;3.70;;;17.80;99.90;;;;;;5048805;28;20488;-67
2022/09/11 17:26:17;;;;;;;3.80;3.50;;;17.80;99.90;;;;;;5049337;28;20468;-67
2022/09/11 17:28:46;;;;;;;4.33;3.53;;;17.70;99.90;;;;;;5049771;28;20986;-67
2022/09/11 17:31:14;;;;;;;4.00;3.60;;;17.60;99.90;;;;;;5049621;28;20464;-66
2022/09/11 17:33:42;;;;;;;4.70;4.30;;;17.60;99.90;;;;;;5050007;28;20483;-67
2022/09/11 17:36:10;;;;;;;4.93;3.87;;;17.50;99.90;;;;;;5049664;28;20467;-67
2022/09/11 17:38:39;;;;;;;4.20;3.80;;;17.40;99.90;;;;;;5049813;28;20456;-68
2022/09/11 17:41:08;;;;;;;4.10;3.70;;;17.30;99.90;;;;;;5049248;28;20463;-66
2022/09/11 17:43:36;;;;;;;4.10;3.70;;;17.20;99.90;;;;;;5150053;22;20496;-67
2022/09/11 17:46:06;;;;;;;4.90;4.20;;;17.10;99.90;;;;;;5040256;28;20817;-68
2022/09/11 17:48:33;;;;;;;4.50;4.10;;;17.00;99.90;;;;;;5028132;28;20472;-68
2022/09/11 17:51:01;;;;;;;4.07;3.67;;;17.00;99.90;;;;;;5049580;28;20279;-68
2022/09/11 17:53:31;;;;;;;4.40;4.03;;;17.00;99.90;;;;;;5048779;28;20487;-68
2022/09/11 17:56:04;;;;;;;4.30;3.77;;;16.90;99.90;;;;;;5049015;28;20464;-68
2022/09/11 17:58:31;;;;;;;3.87;3.47;;;16.80;99.90;;;;;;5049703;28;20478;-68
2022/09/11 18:00:59;;;;;;;4.90;4.50;;;16.80;99.90;;;;;;5050078;28;20824;-68
2022/09/11 18:03:27;;;;;;;4.00;3.60;;;16.70;99.90;;;;;;5048394;28;20483;-68
2022/09/11 18:05:54;;;;;;;4.43;4.03;;;16.70;99.90;;;;;;5049879;28;20509;-68
2022/09/11 18:08:21;;;;;;;4.17;3.67;;;16.60;99.90;;;;;;5048108;28;20460;-68
2022/09/11 18:10:52;;;;;;;3.90;3.53;;;16.50;99.90;;;;;;5049560;28;20460;-67
2022/09/11 18:13:21;;;;;;;3.80;3.50;;;16.50;99.90;;;;;;5048600;28;20484;-67
2022/09/11 18:15:48;;;;;;;5.30;3.80;;;16.40;99.90;;;;;;5048640;28;20549;-67
2022/09/11 18:18:15;;;;;;;4.20;3.80;;;16.30;99.90;;;;;;5049007;28;20521;-67
2022/09/11 18:20:43;;;;;;;4.00;3.60;;;16.30;99.90;;;;;;5197250;22;20500;-67
2022/09/11 18:23:10;;;;;;;4.90;4.40;;;16.20;99.90;;;;;;5045092;28;20480;-69
2022/09/11 18:25:37;;;;;;;4.47;4.07;;;16.20;99.90;;;;;;5048326;28;20472;-69
2022/09/11 18:28:04;;;;;;;4.63;3.90;;;16.10;99.90;;;;;;5048569;28;20459;-69
2022/09/11 18:30:33;;;;;;;3.57;3.20;;;16.10;99.90;;;;;;5048505;28;20460;-69
2022/09/11 18:33:00;;;;;;;5.17;4.67;;;16.10;99.90;;;;;;5048080;28;20480;-69
2022/09/11 18:35:27;;;;;;;4.03;3.63;;;16.00;99.90;;;;;;5049028;28;20467;-69
2022/09/11 18:37:54;;;;;;;5.00;3.90;;;16.00;99.90;;;;;;5048954;28;20870;-69
2022/09/11 18:40:21;;;;;;;5.70;3.83;;;15.90;99.90;;;;;;5048912;28;20468;-69
2022/09/11 18:42:47;;;;;;;3.80;3.50;;;15.90;99.90;;;;;;5047873;28;20483;-69
2022/09/11 18:45:15;;;;;;;4.73;4.23;;;15.90;99.90;;;;;;5048423;28;20479;-69
2022/09/11 18:47:43;;;;;;;4.00;3.60;;;15.90;99.90;;;;;;5048171;28;20475;-69